tititudorancea.com
Station Historical Data
Daily Summary for February 20, 2019 Units:  Metric    English   Both
« Previous Day
Next Day »
Daily Weekly Monthly Yearly Custom
  High: Low: Average:
Temperature: -17.8 °C 6.6 °C 14.8 °C
Dew Point: -17.8 °C 5.2 °C 8.6 °C
Humidity: Humidity % 43 % 69 %
Wind Speed: 0 km/h 0 km/h 13.7 km/h
Wind Gust: 0 km/h - -
Wind:- - SSW
Pressure: 0 hPa 1012.8 hPa -
Precipitation: 0 mm    
Historical Graphs
 
 
Ararat weather Find more about Weather in Ararat, AU


 



 


Tabular Data for February 20, 2019
Time Temperature Dew Point Pressure Wind Wind Speed Wind Gust Humidity Rainfall Rate (Hourly)
-17.8 °C -17.8 °C 0 hPa Calm     Humidity % 0 mm
00:04 11.2 °C 6.3 °C 1014.4 hPa South 7.4 km/h 4.5 km/h 72 % 0 mm
00:09 11.1 °C 6.3 °C 1014.4 hPa South 6.4 km/h 4.3 km/h 72 % 0 mm
00:14 11.1 °C 6.4 °C 1014.4 hPa South 7.4 km/h 3.4 km/h 73 % 0 mm
00:19 11 °C 6.3 °C 1014.4 hPa South 9.3 km/h 3.1 km/h 73 % 0 mm
00:24 10.9 °C 6.5 °C 1014.4 hPa South 7.4 km/h 5.3 km/h 74 % 0 mm
00:29 10.9 °C 6.4 °C 1014.4 hPa South 3.7 km/h 3.1 km/h 74 % 0 mm
00:34 10.9 °C 6.4 °C 1014.4 hPa South 5.6 km/h 4.2 km/h 74 % 0 mm
00:39 10.8 °C 6.6 °C 1014.4 hPa South 5.6 km/h 3.1 km/h 75 % 0 mm
00:44 10.8 °C 6.5 °C 1014.4 hPa South 5.6 km/h 3.7 km/h 75 % 0 mm
00:49 10.7 °C 6.4 °C 1014.4 hPa South 3.7 km/h 0.6 km/h 75 % 0 mm
00:54 10.6 °C 6.6 °C 1014.4 hPa South 1.9 km/h 1.3 km/h 76 % 0 mm
00:59 10.6 °C 6.6 °C 1014.4 hPa South 3.7 km/h 1.9 km/h 76 % 0 mm
01:04 10.6 °C 6.7 °C 1014.4 hPa South 3.7 km/h 2.3 km/h 77 % 0 mm
01:09 10.5 °C 6.8 °C 1014.4 hPa South 1.9 km/h 1 km/h 78 % 0 mm
01:14 10.4 °C 6.7 °C 1014.4 hPa South 3.7 km/h 1 km/h 78 % 0 mm
01:19 10.3 °C 6.8 °C 1014.4 hPa South 1.9 km/h 1.1 km/h 79 % 0 mm
01:24 10.2 °C 6.7 °C 1014.4 hPa South 3.7 km/h 1.9 km/h 79 % 0 mm
01:29 10.2 °C 6.9 °C 1014.4 hPa South 3.7 km/h 2.1 km/h 80 % 0 mm
01:34 10.2 °C 6.9 °C 1014.4 hPa South 3.7 km/h 1.4 km/h 80 % 0 mm
01:39 10.1 °C 6.8 °C 1014.1 hPa Calm     80 % 0 mm
01:44 9.9 °C 6.7 °C 1014.1 hPa Calm     80 % 0 mm
01:49 9.8 °C 6.5 °C 1014.1 hPa Calm     80 % 0 mm
01:54 9.6 °C 6.4 °C 1014.1 hPa Calm     81 % 0 mm
01:59 9.4 °C 6.3 °C 1014.1 hPa Calm     81 % 0 mm
02:04 9.3 °C 6.4 °C 1013.8 hPa Calm     82 % 0 mm
02:09 9.1 °C 6.2 °C 1013.8 hPa Calm     82 % 0 mm
02:14 8.9 °C 6 °C 1013.8 hPa Calm     82 % 0 mm
02:19 8.7 °C 5.8 °C 1013.8 hPa Calm     82 % 0 mm
02:24 8.6 °C 5.8 °C 1013.4 hPa Calm     83 % 0 mm
02:29 8.4 °C 5.9 °C 1013.4 hPa Calm     84 % 0 mm
02:34 8.4 °C 6.1 °C 1013.4 hPa Calm     85 % 0 mm
02:39 8.4 °C 6 °C 1013.4 hPa Calm     85 % 0 mm
02:44 8.3 °C 5.9 °C 1013.4 hPa Calm     85 % 0 mm
02:49 8.2 °C 5.9 °C 1013.4 hPa Calm     86 % 0 mm
02:54 8.1 °C 5.9 °C 1013.4 hPa Calm     86 % 0 mm
02:59 8.1 °C 6 °C 1013.4 hPa Calm     87 % 0 mm
03:04 8 °C 5.9 °C 1013.4 hPa Calm     87 % 0 mm
03:09 7.9 °C 5.9 °C 1013.4 hPa Calm     87 % 0 mm
03:14 7.8 °C 5.7 °C 1013.4 hPa Calm     87 % 0 mm
03:19 7.8 °C 5.7 °C 1013.4 hPa Calm     87 % 0 mm
03:24 7.7 °C 5.8 °C 1013.4 hPa Calm     88 % 0 mm
03:29 7.7 °C 5.8 °C 1013.4 hPa Calm     88 % 0 mm
03:34 7.6 °C 5.7 °C 1013.4 hPa Calm     88 % 0 mm
03:39 7.7 °C 5.9 °C 1013.4 hPa Calm     89 % 0 mm
03:44 7.8 °C 6.1 °C 1013.4 hPa Calm     89 % 0 mm
03:49 7.8 °C 6.1 °C 1013.4 hPa Calm     89 % 0 mm
03:54 7.8 °C 5.9 °C 1013.4 hPa Calm     88 % 0 mm
03:59 7.6 °C 5.7 °C 1013.4 hPa Calm     88 % 0 mm
04:04 7.5 °C 5.8 °C 1013.4 hPa Calm     89 % 0 mm
04:09 7.4 °C 5.7 °C 1013.4 hPa Calm     89 % 0 mm
04:14 7.3 °C 5.7 °C 1013.4 hPa Calm     89 % 0 mm
04:19 7.3 °C 5.6 °C 1013.4 hPa Calm     89 % 0 mm
04:24 7.4 °C 5.8 °C 1013.4 hPa Calm     90 % 0 mm
04:29 7.5 °C 5.9 °C 1013.4 hPa South 3.7 km/h 0.2 km/h 90 % 0 mm
04:34 7.6 °C 6.1 °C 1013.4 hPa South 3.7 km/h 0.5 km/h 90 % 0 mm
04:39 7.6 °C 6.1 °C 1013.4 hPa Calm     90 % 0 mm
04:44 7.6 °C 6.1 °C 1013.4 hPa North 1.9 km/h   90 % 0 mm
04:49 7.4 °C 5.8 °C 1013.4 hPa Calm     90 % 0 mm
04:54 7.3 °C 5.7 °C 1013.4 hPa Calm     90 % 0 mm
04:59 7.2 °C 5.6 °C 1013.4 hPa Calm     90 % 0 mm
05:04 7.2 °C 5.6 °C 1013.4 hPa Calm     90 % 0 mm
05:09 7.1 °C 5.5 °C 1013.4 hPa Calm     90 % 0 mm
05:14 7 °C 5.4 °C 1013.4 hPa Calm     90 % 0 mm
05:19 6.9 °C 5.6 °C 1013.4 hPa Calm     91 % 0 mm
05:24 6.9 °C 5.5 °C 1013.4 hPa Calm     91 % 0 mm
05:29 6.9 °C 5.5 °C 1013.4 hPa Calm     91 % 0 mm
05:34 6.8 °C 5.3 °C 1013.4 hPa Calm     90 % 0 mm
05:39 6.7 °C 5.2 °C 1013.8 hPa Calm     90 % 0 mm
05:44 6.6 °C 5.2 °C 1013.8 hPa Calm     91 % 0 mm
05:49 6.6 °C 5.2 °C 1013.8 hPa South 3.7 km/h 0.6 km/h 91 % 0 mm
05:54 6.7 °C 5.3 °C 1013.8 hPa Calm     91 % 0 mm
05:59 6.7 °C 5.3 °C 1013.8 hPa South 3.7 km/h 2.6 km/h 91 % 0 mm
06:04 6.7 °C 5.3 °C 1013.8 hPa Calm     91 % 0 mm
06:09 6.7 °C 5.4 °C 1013.8 hPa Calm     92 % 0 mm
06:14 6.7 °C 5.4 °C 1013.8 hPa Calm     92 % 0 mm
06:19 6.6 °C 5.2 °C 1013.8 hPa Calm     91 % 0 mm
06:24 6.6 °C 5.2 °C 1013.8 hPa Calm     91 % 0 mm
06:29 6.6 °C 5.4 °C 1013.8 hPa Calm     92 % 0 mm
06:34 6.8 °C 5.6 °C 1013.8 hPa South 1.9 km/h 1.3 km/h 92 % 0 mm
06:39 7 °C 5.9 °C 1013.8 hPa South 1.9 km/h 0.3 km/h 93 % 0 mm
06:44 7.2 °C 6.1 °C 1013.8 hPa South 3.2 km/h 0.3 km/h 93 % 0 mm
06:49 7.3 °C 6.2 °C 1014.1 hPa South 1.9 km/h 1.9 km/h 93 % 0 mm
06:54 7.7 °C 6.8 °C 1014.1 hPa South 1.9 km/h 0.3 km/h 94 % 0 mm
06:59 8.2 °C 7.3 °C 1014.1 hPa South 3.7 km/h 1.4 km/h 94 % 0 mm
07:04 8.4 °C 7.4 °C 1014.1 hPa South 3.7 km/h 2.3 km/h 93 % 0 mm
07:09 8.6 °C 7.6 °C 1014.1 hPa Calm     93 % 0 mm
07:14 8.8 °C 7.7 °C 1014.1 hPa South 1.9 km/h   93 % 0 mm
07:19 9 °C 7.9 °C 1014.1 hPa South 8 km/h 7.4 km/h 93 % 0 mm
07:24 9.4 °C 8.2 °C 1014.1 hPa South 1.9 km/h 1.9 km/h 92 % 0 mm
07:29 9.6 °C 8.4 °C 1014.1 hPa South 3.7 km/h 1.9 km/h 92 % 0 mm
07:34 9.7 °C 8.3 °C 1014.1 hPa Calm     91 % 0 mm
07:39 9.8 °C 8.2 °C 1014.1 hPa South 5.6 km/h 2.4 km/h 90 % 0 mm
07:44 9.9 °C 8.3 °C 1014.1 hPa Calm     90 % 0 mm
07:49 10 °C 8.3 °C 1014.1 hPa South 3.7 km/h 2.6 km/h 89 % 0 mm
07:54 10.1 °C 8.2 °C 1014.1 hPa South 1.9 km/h 0.3 km/h 88 % 0 mm
07:59 10.2 °C 8.3 °C 1014.1 hPa South 1.9 km/h 0.3 km/h 88 % 0 mm
08:04 10.3 °C 8.3 °C 1014.1 hPa Calm     87 % 0 mm
08:09 10.5 °C 8.4 °C 1014.1 hPa South 1.9 km/h 0.6 km/h 87 % 0 mm
08:14 10.7 °C 8.8 °C 1014.1 hPa Calm     88 % 0 mm
08:19 11.3 °C 9.4 °C 1014.1 hPa Calm     88 % 0 mm
08:24 12 °C 9.7 °C 1014.4 hPa Calm   0.2 km/h 86 % 0 mm
08:29 12.6 °C 9.6 °C 1014.4 hPa South 5.6 km/h 1.6 km/h 82 % 0 mm
08:34 13.2 °C 9.8 °C 1014.4 hPa South 3.7 km/h 3.4 km/h 80 % 0 mm
08:39 13.7 °C 9.6 °C 1014.4 hPa South 3.7 km/h 0.6 km/h 76 % 0 mm
08:44 13.9 °C 8.7 °C 1014.4 hPa SSW 7.4 km/h 7.4 km/h 71 % 0 mm
08:49 14.1 °C 8.9 °C 1014.4 hPa SSW 8 km/h 6.1 km/h 71 % 0 mm
08:54 14.2 °C 8.6 °C 1014.4 hPa SSW 9.3 km/h 4.3 km/h 69 % 0 mm
08:59 14.3 °C 8.4 °C 1014.4 hPa SSW 14.8 km/h 12.6 km/h 68 % 0 mm
09:04 14.3 °C 8.3 °C 1014.4 hPa South 31.5 km/h 10.9 km/h 67 % 0 mm
09:09 14.4 °C 8.3 °C 1014.4 hPa SSW 18.5 km/h 11.9 km/h 67 % 0 mm
09:14 14.5 °C 8.4 °C 1014.4 hPa SSW 20.4 km/h 8.4 km/h 67 % 0 mm
09:19 14.7 °C 8.7 °C 1014.8 hPa SSW 17.7 km/h 11.4 km/h 67 % 0 mm
09:24 14.9 °C 8.8 °C 1014.8 hPa South 13 km/h 7.4 km/h 67 % 0 mm
09:29 14.9 °C 8.7 °C 1014.8 hPa SW 18.5 km/h 11.6 km/h 66 % 0 mm
09:34 15.2 °C 9.1 °C 1014.8 hPa SSW 12.9 km/h 13.4 km/h 67 % 0 mm
09:39 15.4 °C 8.8 °C 1014.8 hPa SW 16.7 km/h 10.6 km/h 65 % 0 mm
09:44 15.4 °C 8.7 °C 1014.8 hPa SW 19.3 km/h 11.9 km/h 64 % 0 mm
09:49 15.5 °C 8.7 °C 1015.1 hPa SW 31.5 km/h 15.8 km/h 64 % 0 mm
09:54 15.3 °C 8.5 °C 1015.1 hPa SSW 16.7 km/h 15.4 km/h 64 % 0 mm
09:59 15.3 °C 8.7 °C 1014.8 hPa SW 14.8 km/h 6.6 km/h 65 % 0 mm
10:04 15.6 °C 9.1 °C 1015.1 hPa SW 20.9 km/h 16.6 km/h 65 % 0 mm
10:09 15.8 °C 9.1 °C 1015.1 hPa SW 25.9 km/h 13.2 km/h 64 % 0 mm
10:14 15.7 °C 9.2 °C 1014.8 hPa SW 20.4 km/h 13.2 km/h 65 % 0 mm
10:19 15.7 °C 9.2 °C 1014.8 hPa SSW 18.5 km/h 13.4 km/h 65 % 0 mm
10:24 15.8 °C 9.3 °C 1014.8 hPa SSW 24.1 km/h 17.7 km/h 65 % 0 mm
10:29 15.9 °C 9.6 °C 1014.8 hPa WSW 18.5 km/h 12.1 km/h 66 % 0 mm
10:34 16.1 °C 9.5 °C 1014.8 hPa WSW 25.9 km/h 17.1 km/h 65 % 0 mm
10:39 15.8 °C 9.7 °C 1015.1 hPa WSW 18.5 km/h 12.2 km/h 67 % 0 mm
10:44 15.9 °C 9.8 °C 1015.1 hPa SW 20.4 km/h 11.9 km/h 67 % 0 mm
10:49 15.9 °C 9.8 °C 1015.1 hPa West 20.4 km/h 16.3 km/h 67 % 0 mm
10:54 15.9 °C 9.8 °C 1015.1 hPa SW 14.8 km/h 6.4 km/h 67 % 0 mm
10:59 16 °C 9.9 °C 1015.1 hPa SW 22.2 km/h 15.1 km/h 67 % 0 mm
11:04 15.8 °C 9.7 °C 1015.1 hPa WSW 22.2 km/h 15.6 km/h 67 % 0 mm
11:09 15.8 °C 9.9 °C 1015.1 hPa SW 20.9 km/h 14.2 km/h 68 % 0 mm
11:14 15.9 °C 10.1 °C 1015.1 hPa WSW 22.2 km/h 13.4 km/h 68 % 0 mm
11:19 16.1 °C 9.9 °C 1015.1 hPa SW 14.8 km/h 11.3 km/h 67 % 0 mm
11:24 16.1 °C 10 °C 1015.1 hPa SW 17.7 km/h 13.5 km/h 67 % 0 mm
11:29 16.4 °C 10.1 °C 1015.1 hPa SSW 20.9 km/h 19.5 km/h 66 % 0 mm
11:34 16.7 °C 10.1 °C 1015.1 hPa SW 19.3 km/h 12.4 km/h 65 % 0 mm
11:39 16.9 °C 10.1 °C 1015.1 hPa SW 20.4 km/h 10 km/h 64 % 0 mm
11:44 17.3 °C 10.4 °C 1014.8 hPa SSW 14.5 km/h 8.7 km/h 64 % 0 mm
11:49 17.5 °C 10.1 °C 1015.1 hPa SW 16.7 km/h 10.1 km/h 62 % 0 mm
11:54 17.7 °C 9.8 °C 1015.1 hPa SW 33.3 km/h 21.9 km/h 60 % 0 mm
11:59 17.8 °C 9.9 °C 1015.1 hPa SSW 22.2 km/h 10.9 km/h 60 % 0 mm
12:04 17.7 °C 9.8 °C 1014.8 hPa South 35.2 km/h 20.6 km/h 60 % 0 mm
12:09 17.7 °C 9.8 °C 1014.8 hPa SSW 31.5 km/h 19.3 km/h 60 % 0 mm
12:14 17.8 °C 10.2 °C 1014.8 hPa SW 22.5 km/h 18.2 km/h 61 % 0 mm
12:19 17.9 °C 9.8 °C 1014.8 hPa South 20.4 km/h 15.4 km/h 59 % 0 mm
12:24 18.2 °C 10.1 °C 1014.8 hPa SSW 31.5 km/h 13.4 km/h 59 % 0 mm
12:29 18.7 °C 10.3 °C 1014.4 hPa WSW 24.1 km/h 17.4 km/h 58 % 0 mm
12:34 18.7 °C 10 °C 1014.8 hPa SW 18.5 km/h 13.8 km/h 57 % 0 mm
12:39 19.1 °C 10.7 °C 1014.4 hPa SW 17.7 km/h 13.7 km/h 58 % 0 mm
12:44 19.2 °C 9.9 °C 1014.4 hPa WSW 27.8 km/h 20 km/h 55 % 0 mm
12:49 19.1 °C 10.1 °C 1014.4 hPa SW 18.5 km/h 15.1 km/h 56 % 0 mm
12:54 19.4 °C 10.4 °C 1014.4 hPa SW 18.5 km/h 15.1 km/h 56 % 0 mm
12:59 19.6 °C 10.3 °C 1014.4 hPa WSW 18.5 km/h 10 km/h 55 % 0 mm
13:04 19.7 °C 10.2 °C 1014.1 hPa WSW 22.2 km/h 9.3 km/h 54 % 0 mm
13:09 19.3 °C 9.7 °C 1014.1 hPa SSW 18.5 km/h 14.3 km/h 54 % 0 mm
13:14 19.4 °C 10.1 °C 1014.1 hPa SW 20.9 km/h 14.5 km/h 55 % 0 mm
13:19 19.7 °C 9.9 °C 1014.1 hPa WSW 12.9 km/h 9.3 km/h 53 % 0 mm
13:24 19.9 °C 9.7 °C 1014.1 hPa SW 20.4 km/h 10.6 km/h 52 % 0 mm
13:29 20.2 °C 10.1 °C 1014.1 hPa SW 8 km/h 2.4 km/h 52 % 0 mm
13:34 20.2 °C 9.4 °C 1014.1 hPa SW 24.1 km/h 14.8 km/h 50 % 0 mm
13:39 20.2 °C 9.4 °C 1013.8 hPa SSW 16.7 km/h 11.1 km/h 50 % 0 mm
13:44 20.3 °C 8.9 °C 1014.1 hPa SW 31.5 km/h 19 km/h 48 % 0 mm
13:49 20.8 °C 9.7 °C 1013.8 hPa WSW 16.7 km/h 9.3 km/h 49 % 0 mm
13:54 20.6 °C 9.5 °C 1013.8 hPa SW 18.5 km/h 9.3 km/h 49 % 0 mm
13:59 20.9 °C 9.4 °C 1013.8 hPa SW 29.6 km/h 17.1 km/h 48 % 0 mm
14:04 20.9 °C 9.5 °C 1013.8 hPa SW 24.1 km/h 15.1 km/h 48 % 0 mm
14:09 21.1 °C 9.3 °C 1013.8 hPa SW 22.2 km/h 17.1 km/h 47 % 0 mm
14:14 21.1 °C 9.6 °C 1013.8 hPa SW 18.5 km/h 17.7 km/h 48 % 0 mm
14:19 21.6 °C 10.1 °C 1013.8 hPa SW 18.5 km/h 12.2 km/h 48 % 0 mm
14:24 21.6 °C 10.1 °C 1013.8 hPa SW 7.4 km/h 3.2 km/h 48 % 0 mm
14:29 22 °C 9.8 °C 1013.8 hPa SW 14.8 km/h 15.9 km/h 46 % 0 mm
14:34 21.6 °C 9.8 °C 1013.8 hPa South 20.4 km/h 14 km/h 47 % 0 mm
14:39 21.7 °C 9.6 °C 1013.8 hPa SSW 27.8 km/h 19.5 km/h 46 % 0 mm
14:44 22.4 °C 10.2 °C 1013.4 hPa WSW 29.6 km/h 16.9 km/h 46 % 0 mm
14:49 22.4 °C 10.2 °C 1013.4 hPa South 22.2 km/h 13.7 km/h 46 % 0 mm
14:54 22.4 °C 9.9 °C 1013.4 hPa WSW 25.9 km/h 12.1 km/h 45 % 0 mm
14:59 22.2 °C 10 °C 1013.4 hPa South 37 km/h 27.8 km/h 46 % 0 mm
15:04 22.2 °C 10 °C 1013.4 hPa WSW 29.6 km/h 19.6 km/h 46 % 0 mm
15:09 22.3 °C 10.4 °C 1013.4 hPa SW 14.5 km/h 11.9 km/h 47 % 0 mm
15:14 22.2 °C 10.1 °C 1013.4 hPa SW 27.8 km/h 11.4 km/h 46 % 0 mm
15:19 22.1 °C 10.6 °C 1013.4 hPa SW 24.1 km/h 15.8 km/h 48 % 0 mm
15:24 21.9 °C 10.7 °C 1013.4 hPa South 29.6 km/h 9.2 km/h 49 % 0 mm
15:29 22.3 °C 11.1 °C 1013.4 hPa SW 20.9 km/h 11.9 km/h 49 % 0 mm
15:34 22.1 °C 10.6 °C 1013.1 hPa SSW 27.4 km/h 21.9 km/h 48 % 0 mm
15:39 21.9 °C 10.7 °C 1013.4 hPa SW 27.8 km/h 10 km/h 49 % 0 mm
15:44 21.9 °C 10.7 °C 1013.4 hPa SSE 24.1 km/h 15.3 km/h 49 % 0 mm
15:49 22.1 °C 10.8 °C 1013.4 hPa SSW 24.1 km/h 20.9 km/h 49 % 0 mm
15:54 22.3 °C 10.8 °C 1013.1 hPa South 35.2 km/h 17.7 km/h 48 % 0 mm
15:59 22.2 °C 10.6 °C 1013.1 hPa SSW 29.6 km/h 19.6 km/h 48 % 0 mm
16:04 22.1 °C 10.6 °C 1013.1 hPa SSW 27.8 km/h 19.5 km/h 48 % 0 mm
16:09 22.4 °C 10.5 °C 1013.1 hPa South 38.9 km/h 19.6 km/h 47 % 0 mm
16:14 22.1 °C 10.3 °C 1013.1 hPa SSW 35.2 km/h 21.1 km/h 47 % 0 mm
16:19 22.1 °C 10.3 °C 1013.1 hPa SW 25.9 km/h 21.2 km/h 47 % 0 mm
16:24 22.2 °C 10.4 °C 1012.8 hPa South 18.5 km/h 13.8 km/h 47 % 0 mm
16:29 22.1 °C 10.3 °C 1012.8 hPa SSE 22.2 km/h 15.9 km/h 47 % 0 mm
16:34 22.1 °C 10.3 °C 1013.1 hPa SSW 31.5 km/h 18.7 km/h 47 % 0 mm
16:39 22.1 °C 10.3 °C 1012.8 hPa South 32.2 km/h 22.5 km/h 47 % 0 mm
16:44 22.1 °C 9.9 °C 1013.1 hPa SSW 22.2 km/h 23.8 km/h 46 % 0 mm
16:49 21.8 °C 10 °C 1013.1 hPa SW 22.5 km/h 17.1 km/h 47 % 0 mm
16:54 21.9 °C 10.1 °C 1013.1 hPa WSW 24.1 km/h 17.9 km/h 47 % 0 mm
16:59 21.9 °C 9.8 °C 1013.1 hPa SW 24.1 km/h 11.3 km/h 46 % 0 mm
17:04 22.1 °C 9.6 °C 1013.1 hPa South 35.2 km/h 15.3 km/h 45 % 0 mm
17:09 22.4 °C 9.6 °C 1013.1 hPa SW 25.9 km/h 16.4 km/h 44 % 0 mm
17:14 22.3 °C 10.1 °C 1013.1 hPa South 18.5 km/h 13 km/h 46 % 0 mm
17:19 22.3 °C 9.8 °C 1013.1 hPa SSW 22.2 km/h 14.5 km/h 45 % 0 mm
17:23 22.2 °C 9.4 °C 1013.1 hPa SSW 35.2 km/h 23.8 km/h 44 % 0 mm
17:29 22.3 °C 9.1 °C 1013.1 hPa SW 24.1 km/h 12.1 km/h 43 % 0 mm
17:34 22.7 °C 9.4 °C 1013.1 hPa SW 20.4 km/h 16.1 km/h 43 % 0 mm
17:39 22.3 °C 9.8 °C 1013.1 hPa SW 18.5 km/h 17.4 km/h 45 % 0 mm
17:44 21.9 °C 10.1 °C 1013.1 hPa SSW 16.7 km/h 15.9 km/h 47 % 0 mm
17:49 21.9 °C 9.7 °C 1013.1 hPa SW 18.5 km/h 10.9 km/h 46 % 0 mm
17:54 21.7 °C 9.6 °C 1013.1 hPa SW 22.2 km/h 11.6 km/h 46 % 0 mm
17:59 22.2 °C 10.1 °C 1013.1 hPa South 25.7 km/h 17.2 km/h 46 % 0 mm
18:04 22.3 °C 9.8 °C 1013.1 hPa SW 24.1 km/h 15.9 km/h 45 % 0 mm
18:09 22.4 °C 9.9 °C 1013.1 hPa SW 18.5 km/h 14.2 km/h 45 % 0 mm
18:14 22.7 °C 9.8 °C 1013.4 hPa SW 18.5 km/h 10 km/h 44 % 0 mm
18:19 22.2 °C 10.3 °C 1013.4 hPa SSW 31.5 km/h 15 km/h 47 % 0 mm
18:24 21.9 °C 10.7 °C 1013.4 hPa SSW 20.9 km/h 7.7 km/h 49 % 0 mm
18:29 22.1 °C 10.6 °C 1013.8 hPa SW 22.2 km/h 19.2 km/h 48 % 0 mm
18:34 22 °C 10.5 °C 1013.8 hPa SW 24.1 km/h 13.4 km/h 48 % 0 mm
18:39 21.6 °C 10.4 °C 1013.8 hPa SSW 20.4 km/h 16.9 km/h 49 % 0 mm
18:44 21.3 °C 10.4 °C 1013.8 hPa SW 22.2 km/h 13.5 km/h 50 % 0 mm
18:49 21.4 °C 10.6 °C 1013.8 hPa SSW 25.9 km/h 17.4 km/h 50 % 0 mm
18:54 21.2 °C 10.6 °C 1013.8 hPa SW 25.9 km/h 17.2 km/h 51 % 0 mm
18:59 21.1 °C 10.3 °C 1013.8 hPa SSW 31.5 km/h 17.7 km/h 50 % 0 mm
19:04 20.6 °C 10.4 °C 1014.1 hPa SW 22.2 km/h 15.4 km/h 52 % 0 mm
19:09 20.4 °C 10.5 °C 1014.1 hPa SSW 25.7 km/h 18 km/h 53 % 0 mm
19:14 20.3 °C 10.4 °C 1014.1 hPa SSW 16.7 km/h 12.2 km/h 53 % 0 mm
19:19 20.2 °C 10.1 °C 1014.1 hPa SSW 22.2 km/h 15.8 km/h 52 % 0 mm
19:24 20.4 °C 10.3 °C 1014.1 hPa South 20.4 km/h 10.6 km/h 52 % 0 mm
19:29 20.5 °C 10.3 °C 1014.1 hPa SW 20.4 km/h 13.8 km/h 52 % 0 mm
19:34 20.3 °C 10.1 °C 1014.1 hPa SW 29.6 km/h 20.4 km/h 52 % 0 mm
19:39 20.1 °C 9.9 °C 1014.1 hPa SSW 27.8 km/h 14.3 km/h 52 % 0 mm
19:44 20.1 °C 9.9 °C 1014.4 hPa SW 20.9 km/h 14.2 km/h 52 % 0 mm
19:49 19.9 °C 9.7 °C 1014.4 hPa SW 20.4 km/h 10.5 km/h 52 % 0 mm
19:54 19.7 °C 9.6 °C 1014.4 hPa SSW 20.4 km/h 14 km/h 52 % 0 mm
19:59 19.5 °C 9.7 °C 1014.4 hPa SSW 22.2 km/h 15.8 km/h 53 % 0 mm
20:04 19.3 °C 9.7 °C 1014.4 hPa SSW 18.5 km/h 14.3 km/h 54 % 0 mm
20:09 19.1 °C 9.6 °C 1014.4 hPa SSW 22.2 km/h 10.5 km/h 54 % 0 mm
20:14 18.9 °C 9.4 °C 1014.4 hPa SSW 16.7 km/h 15.1 km/h 54 % 0 mm
20:19 18.8 °C 9.6 °C 1014.8 hPa SSW 14.8 km/h 10.9 km/h 55 % 0 mm
20:24 18.7 °C 9.5 °C 1014.8 hPa SSW 16.7 km/h 11.7 km/h 55 % 0 mm
20:29 18.6 °C 9.4 °C 1014.8 hPa SSW 13 km/h 9.5 km/h 55 % 0 mm
20:34 18.4 °C 9.2 °C 1014.8 hPa SSW 18.5 km/h 15.4 km/h 55 % 0 mm
20:39 18.3 °C 9.3 °C 1014.8 hPa SSW 18.5 km/h 9.5 km/h 56 % 0 mm
20:44 18.2 °C 9.2 °C 1014.8 hPa South 25.9 km/h 20.4 km/h 56 % 0 mm
20:49 18.1 °C 9.4 °C 1015.1 hPa SSW 22.2 km/h 11.9 km/h 57 % 0 mm
20:54 17.8 °C 9.4 °C 1015.1 hPa SSW 20.4 km/h 15.1 km/h 58 % 0 mm
20:59 17.6 °C 9.2 °C 1015.1 hPa SSW 31.5 km/h 24 km/h 58 % 0 mm
21:04 17.4 °C 9.3 °C 1015.1 hPa South 20.4 km/h 13.8 km/h 59 % 0 mm
21:09 17.1 °C 9.7 °C 1015.5 hPa SSW 18.5 km/h 12.6 km/h 62 % 0 mm
21:14 16.6 °C 10.2 °C 1015.5 hPa South 17.7 km/h 15.4 km/h 66 % 0 mm
21:19 16.3 °C 10.6 °C 1015.5 hPa SSE 18.5 km/h 12.6 km/h 69 % 0 mm
21:24 16 °C 10.7 °C 1015.8 hPa South 24.1 km/h 16.1 km/h 71 % 0 mm
21:29 15.8 °C 10.7 °C 1015.8 hPa South 24.1 km/h 16.6 km/h 72 % 0 mm
21:34 15.6 °C 10.8 °C 1015.8 hPa South 9.3 km/h 7.7 km/h 73 % 0 mm
21:39 15.4 °C 10.8 °C 1016.1 hPa South 14.8 km/h 4.7 km/h 74 % 0 mm
21:44 15.3 °C 10.7 °C 1016.1 hPa South 13 km/h 11.1 km/h 74 % 0 mm
21:49 15.1 °C 10.7 °C 1016.1 hPa South 13 km/h 7.1 km/h 75 % 0 mm
21:54 14.9 °C 10.7 °C 1016.5 hPa South 14.8 km/h 11.4 km/h 76 % 0 mm
21:59 14.7 °C 10.7 °C 1016.5 hPa South 20.4 km/h 14.3 km/h 77 % 0 mm
22:04 14.6 °C 10.8 °C 1016.5 hPa South 16.7 km/h 10.5 km/h 78 % 0 mm
22:09 14.4 °C 10.7 °C 1016.5 hPa South 18.5 km/h 9.3 km/h 78 % 0 mm
22:14 14.3 °C 10.5 °C 1016.5 hPa South 14.5 km/h 13.7 km/h 78 % 0 mm
22:19 14.2 °C 10.6 °C 1016.5 hPa South 14.8 km/h 10.9 km/h 79 % 0 mm
22:24 14.1 °C 10.5 °C 1016.8 hPa South 14.8 km/h 10.5 km/h 79 % 0 mm
22:29 14 °C 10.4 °C 1016.8 hPa South 18.5 km/h 11.4 km/h 79 % 0 mm
22:34 13.9 °C 10.5 °C 1016.8 hPa SSW 13 km/h 10.9 km/h 80 % 0 mm
22:39 13.8 °C 10.4 °C 1016.8 hPa South 18.5 km/h 11.1 km/h 80 % 0 mm
22:44 13.8 °C 10.4 °C 1016.8 hPa South 16.7 km/h 14.2 km/h 80 % 0 mm
22:49 13.7 °C 10.5 °C 1016.8 hPa SSW 13 km/h 9.7 km/h 81 % 0 mm
22:54 13.7 °C 10.4 °C 1016.8 hPa South 14.8 km/h 5.1 km/h 81 % 0 mm
22:59 13.6 °C 10.4 °C 1016.8 hPa South 13 km/h 7.9 km/h 81 % 0 mm
23:04 13.5 °C 10.3 °C 1016.8 hPa South 11.3 km/h 8 km/h 81 % 0 mm
23:09 13.4 °C 10.4 °C 1016.8 hPa South 14.8 km/h 6.3 km/h 82 % 0 mm
23:14 13.3 °C 10.3 °C 1016.8 hPa South 11.1 km/h 6.3 km/h 82 % 0 mm
23:19 13.3 °C 10.3 °C 1016.8 hPa South 11.3 km/h 8 km/h 82 % 0 mm
23:24 13.2 °C 10.4 °C 1016.8 hPa South 9.3 km/h 6.4 km/h 83 % 0 mm
23:29 13.1 °C 10.3 °C 1016.8 hPa South 11.1 km/h 9 km/h 83 % 0 mm
23:34 13.1 °C 10.2 °C 1016.8 hPa South 11.1 km/h 7.6 km/h 83 % 0 mm
23:39 12.9 °C 10.3 °C 1016.8 hPa South 9.3 km/h 7.2 km/h 84 % 0 mm
23:44 12.9 °C 10.2 °C 1016.8 hPa South 9.7 km/h 3.9 km/h 84 % 0 mm
23:49 12.8 °C 10.2 °C 1016.8 hPa South 9.3 km/h 6 km/h 84 % 0 mm
23:54 12.8 °C 10.2 °C 1016.8 hPa South 6.4 km/h 6 km/h 84 % 0 mm
23:59 12.7 °C 10.1 °C 1016.8 hPa South 7.4 km/h 5.8 km/h 84 % 0 mm
Ararat Weather
Compliments of Weather Underground - 2.5 mb
Click here to send mail.


ABOUT

Live weather data from Ararat, Victoria, Australia, 3377
Data uploaded from Cumulus every 5 minutes to Weather Underground.
This site then downloads the raw data for formatting and display.
Metric and imperial data can be displayed. Graphs and historical data available.
Includes Sun and Moon times and rain image live from BOM.

Check out Ararat Weather on Facebook, Twitter and Google +

Help support ongoing costs by checking out the ads





Follow @AraratWeather